Time;durP1;ratioP1;P1;durP2;ratioP2;P2;SDS_P1;SDS_P2;PMS_P1;PMS_P2;Temp;Humidity;BMP_temperature;BMP_pressure;BME280_temperature;BME280_humidity;BME280_pressure;Samples;Min_cycle;Max_cycle;Signal;HPM_P1;HPM_P2
2023/08/23 00:00:32;;;;;;;4.13;3.60;;;;;18.90;94610.00;;;;7399089;19;20164;-74
2023/08/23 00:03:07;;;;;;;7.90;3.92;;;;;18.90;94613.00;;;;7398119;19;20477;-75
2023/08/23 00:05:45;;;;;;;6.80;4.15;;;;;19.00;94605.00;;;;7401468;19;20120;-74
2023/08/23 00:08:19;;;;;;;8.45;3.97;;;;;19.00;94599.00;;;;7398713;19;20141;-76
2023/08/23 00:11:00;;;;;;;5.15;4.30;;;;;19.00;94607.00;;;;7398916;19;20140;-74
2023/08/23 00:13:29;;;;;;;4.50;4.07;;;;;19.00;94597.00;;;;7397914;19;20600;-74
2023/08/23 00:16:03;;;;;;;7.30;4.68;;;;;19.10;94599.00;;;;7399406;19;20169;-75
2023/08/23 00:18:30;;;;;;;6.25;4.40;;;;;19.00;94590.00;;;;7399746;19;20603;-75
2023/08/23 00:21:04;;;;;;;5.63;4.32;;;;;19.00;94593.00;;;;7400598;19;20200;-75
2023/08/23 00:23:38;;;;;;;6.07;4.18;;;;;18.90;94588.00;;;;7399123;19;20140;-75
2023/08/23 00:26:15;;;;;;;5.85;4.40;;;;;19.00;94583.00;;;;7399116;19;20464;-75
2023/08/23 00:28:50;;;;;;;11.38;4.30;;;;;19.00;94589.00;;;;7400618;19;20124;-75
2023/08/23 00:31:19;;;;;;;8.13;4.65;;;;;19.10;94587.00;;;;7398808;19;20458;-75
2023/08/23 00:33:52;;;;;;;6.28;4.60;;;;;19.10;94587.00;;;;7397824;19;20541;-74
2023/08/23 00:36:26;;;;;;;8.23;4.85;;;;;18.90;94580.00;;;;7397933;19;20307;-74
2023/08/23 00:39:01;;;;;;;5.25;4.13;;;;;18.90;94581.00;;;;7400695;19;20587;-76
2023/08/23 00:41:37;;;;;;;9.10;4.35;;;;;18.90;94583.00;;;;7393702;19;20548;-76
2023/08/23 00:44:05;;;;;;;6.80;4.53;;;;;18.90;94586.00;;;;7397740;19;20164;-75
2023/08/23 00:46:39;;;;;;;9.77;4.80;;;;;18.90;94582.00;;;;7400356;19;20592;-74
2023/08/23 00:49:15;;;;;;;6.35;4.78;;;;;18.90;94579.00;;;;7391393;19;20132;-74
2023/08/23 00:51:51;;;;;;;6.88;4.63;;;;;18.90;94578.00;;;;7399465;19;20132;-75
2023/08/23 00:54:20;;;;;;;13.35;5.03;;;;;18.90;94584.00;;;;7397931;19;20612;-75
2023/08/23 00:56:55;;;;;;;7.10;5.22;;;;;18.90;94584.00;;;;7397259;19;20157;-75
2023/08/23 00:59:23;;;;;;;9.65;4.68;;;;;19.00;94584.00;;;;7398933;19;20619;-77
2023/08/23 01:02:05;;;;;;;5.03;4.30;;;;;19.00;94594.00;;;;7397172;19;20639;-74
2023/08/23 01:04:34;;;;;;;7.75;5.10;;;;;19.00;94591.00;;;;7394170;19;20144;-75
2023/08/23 01:07:25;;;;;;;7.95;5.13;;;;;19.00;94589.00;;;;7395653;19;20132;-73
2023/08/23 01:10:20;;;;;;;6.32;5.10;;;;;19.00;94600.00;;;;7397944;19;20156;-74
2023/08/23 01:13:13;;;;;;;8.98;5.22;;;;;18.80;94602.00;;;;7397386;19;20149;-74
2023/08/23 01:15:51;;;;;;;10.00;5.03;;;;;18.80;94596.00;;;;7397193;19;20654;-73
2023/08/23 01:18:28;;;;;;;7.45;5.18;;;;;18.80;94595.00;;;;7397964;19;20120;-75
2023/08/23 01:21:06;;;;;;;7.13;4.70;;;;;18.70;94590.00;;;;7395530;19;20165;-74
2023/08/23 01:23:41;;;;;;;6.82;5.22;;;;;18.70;94581.00;;;;7397663;19;20136;-74
2023/08/23 01:26:10;;;;;;;8.23;4.82;;;;;18.70;94591.00;;;;7398001;19;20136;-73
2023/08/23 01:28:47;;;;;;;8.65;5.20;;;;;18.50;94597.00;;;;7395575;19;20535;-73
2023/08/23 01:31:16;;;;;;;8.90;5.28;;;;;18.50;94596.00;;;;7397971;19;20156;-75
2023/08/23 01:34:04;;;;;;;7.32;5.03;;;;;18.40;94592.00;;;;7396074;19;20140;-76
2023/08/23 01:36:41;;;;;;;7.30;4.72;;;;;18.30;94592.00;;;;7397619;19;20227;-73
2023/08/23 01:39:10;;;;;;;9.60;5.93;;;;;18.20;94598.00;;;;7394258;19;20153;-75
2023/08/23 01:41:45;;;;;;;7.07;5.30;;;;;18.20;94600.00;;;;7398492;19;20149;-75
2023/08/23 01:44:20;;;;;;;7.82;5.15;;;;;18.20;94594.00;;;;7396594;19;20154;-74
2023/08/23 01:46:53;;;;;;;9.20;5.10;;;;;18.20;94595.00;;;;7396855;19;20572;-75
2023/08/23 01:49:27;;;;;;;6.47;5.55;;;;;18.30;94588.00;;;;7396884;19;20602;-74
2023/08/23 01:52:01;;;;;;;13.07;6.10;;;;;18.30;94587.00;;;;7397408;19;20208;-74
2023/08/23 01:54:30;;;;;;;9.52;7.10;;;;;18.50;94594.00;;;;7393826;19;20562;-75
2023/08/23 01:57:03;;;;;;;12.95;6.15;;;;;18.60;94599.00;;;;7395983;19;20588;-75
2023/08/23 01:59:41;;;;;;;11.07;6.70;;;;;18.70;94604.00;;;;7396754;19;20129;-75
2023/08/23 02:02:08;;;;;;;8.57;5.95;;;;;18.70;94595.00;;;;7394810;19;20151;-75
2023/08/23 02:04:43;;;;;;;10.50;6.40;;;;;18.80;94590.00;;;;7396752;19;20116;-75
2023/08/23 02:07:23;;;;;;;7.30;5.85;;;;;18.70;94589.00;;;;7395133;19;20624;-75
2023/08/23 02:09:58;;;;;;;6.55;5.88;;;;;18.70;94586.00;;;;7396166;19;20135;-79
2023/08/23 02:12:34;;;;;;;8.02;6.05;;;;;18.70;94592.00;;;;7395015;19;20171;-77
2023/08/23 02:15:09;;;;;;;6.65;5.78;;;;;18.70;94587.00;;;;7396143;19;20132;-78
2023/08/23 02:17:37;;;;;;;8.18;6.30;;;;;18.50;94589.00;;;;7396120;19;20604;-77
2023/08/23 02:20:12;;;;;;;11.30;6.25;;;;;18.50;94583.00;;;;7392411;19;20157;-79
2023/08/23 02:22:46;;;;;;;13.90;6.05;;;;;18.40;94580.00;;;;7397613;19;20131;-77
2023/08/23 02:25:15;;;;;;;6.82;5.72;;;;;18.40;94585.00;;;;7395537;19;20580;-77
2023/08/23 02:27:50;;;;;;;6.35;5.75;;;;;18.40;94588.00;;;;7396168;19;20140;-76
2023/08/23 02:30:23;;;;;;;5.95;5.45;;;;;18.30;94577.00;;;;7395790;19;20140;-77
2023/08/23 02:32:59;;;;;;;6.65;5.85;;;;;18.20;94566.00;;;;7395931;19;20664;-79
2023/08/23 02:35:34;;;;;;;8.95;5.93;;;;;18.20;94565.00;;;;7394326;19;20124;-79
2023/08/23 02:38:08;;;;;;;6.50;5.90;;;;;18.20;94565.00;;;;7396737;19;20592;-78
2023/08/23 02:40:39;;;;;;;7.40;6.07;;;;;18.10;94568.00;;;;7395975;19;20129;-78
2023/08/23 02:43:14;;;;;;;8.32;5.60;;;;;18.10;94569.00;;;;7394965;19;20592;-76
2023/08/23 02:45:49;;;;;;;11.75;6.82;;;;;18.00;94568.00;;;;7395524;19;20154;-75
2023/08/23 02:48:23;;;;;;;8.23;6.00;;;;;18.00;94563.00;;;;7394595;19;20616;-78
2023/08/23 02:50:51;;;;;;;8.18;6.07;;;;;18.10;94577.00;;;;7395634;19;20137;-78
2023/08/23 02:53:21;;;;;;;6.85;6.15;;;;;17.90;94585.00;;;;7397303;19;20144;-79
2023/08/23 02:55:56;;;;;;;6.82;6.10;;;;;17.80;94576.00;;;;7393389;19;20128;-78
2023/08/23 02:58:30;;;;;;;7.38;6.00;;;;;17.80;94579.00;;;;7394495;19;20139;-78
2023/08/23 03:01:05;;;;;;;7.78;6.05;;;;;17.80;94577.00;;;;7394934;19;20140;-78
2023/08/23 03:03:33;;;;;;;9.70;5.97;;;;;17.70;94572.00;;;;7392835;19;20478;-78
2023/08/23 03:06:07;;;;;;;7.82;6.07;;;;;17.60;94570.00;;;;7392972;19;20148;-78
2023/08/23 03:08:48;;;;;;;7.72;6.20;;;;;17.60;94569.00;;;;7394316;19;20164;-77
2023/08/23 03:11:29;;;;;;;10.05;6.18;;;;;17.70;94569.00;;;;7394747;19;20133;-79
2023/08/23 03:13:58;;;;;;;8.52;6.28;;;;;17.80;94572.00;;;;7393802;19;20136;-79
2023/08/23 03:16:33;;;;;;;7.05;6.35;;;;;17.80;94572.00;;;;7395413;19;20127;-78
2023/08/23 03:19:01;;;;;;;9.48;6.43;;;;;17.80;94578.00;;;;7393546;19;20133;-75
2023/08/23 03:21:37;;;;;;;9.02;6.65;;;;;17.90;94575.00;;;;7401302;19;20492;-75
2023/08/23 04:06:46;;;;;;;11.45;6.55;;;;;17.80;94544.00;;;;7401372;19;20133;-75
2023/08/23 04:09:21;;;;;;;9.07;6.20;;;;;17.90;94541.00;;;;7397220;19;20867;-75
2023/08/23 04:11:56;;;;;;;6.80;6.10;;;;;18.00;94542.00;;;;7399408;19;20140;-75
2023/08/23 04:14:24;;;;;;;7.35;5.88;;;;;18.10;94544.00;;;;7397703;19;20141;-74
2023/08/23 04:16:59;;;;;;;9.27;5.85;;;;;18.20;94539.00;;;;7399261;19;20142;-74
2023/08/23 04:19:27;;;;;;;7.57;5.80;;;;;18.20;94537.00;;;;7399862;19;20131;-75
2023/08/23 04:22:02;;;;;;;9.10;6.43;;;;;18.20;94550.00;;;;7397988;19;20140;-75
2023/08/23 04:24:37;;;;;;;8.55;5.93;;;;;18.20;94547.00;;;;7400650;19;20146;-76
2023/08/23 04:27:04;;;;;;;7.60;6.10;;;;;18.30;94544.00;;;;7400115;19;20500;-75
2023/08/23 04:29:33;;;;;;;6.35;5.70;;;;;18.30;94548.00;;;;7397425;19;20175;-72
2023/08/23 04:32:12;;;;;;;8.43;6.18;;;;;18.20;94542.00;;;;7397105;19;20159;-71
2023/08/23 04:34:46;;;;;;;7.82;5.65;;;;;18.10;94544.00;;;;7397208;19;20147;-70
2023/08/23 04:37:14;;;;;;;7.78;5.85;;;;;18.00;94546.00;;;;7399157;19;20210;-71
2023/08/23 04:39:49;;;;;;;9.20;5.93;;;;;17.90;94547.00;;;;7397625;19;20140;-71
2023/08/23 04:42:23;;;;;;;9.57;6.07;;;;;18.00;94560.00;;;;7399215;19;20213;-71
2023/08/23 04:44:59;;;;;;;11.13;5.80;;;;;17.90;94552.00;;;;7397180;19;20140;-72
2023/08/23 04:47:27;;;;;;;7.78;5.70;;;;;18.00;94554.00;;;;7398196;19;20164;-71
2023/08/23 04:49:58;;;;;;;7.65;5.53;;;;;18.10;94558.00;;;;7396976;19;20137;-71
2023/08/23 04:52:33;;;;;;;6.72;5.95;;;;;18.10;94551.00;;;;7399974;19;20156;-71
2023/08/23 04:55:07;;;;;;;12.57;6.30;;;;;18.10;94558.00;;;;7396971;19;20141;-71
2023/08/23 04:57:37;;;;;;;8.48;6.05;;;;;18.30;94563.00;;;;7398192;19;20745;-71
2023/08/23 05:00:11;;;;;;;13.13;6.78;;;;;18.50;94547.00;;;;7396238;19;20636;-73
2023/08/23 05:02:39;;;;;;;9.82;6.18;;;;;18.70;94559.00;;;;7397204;19;20632;-72
2023/08/23 05:05:15;;;;;;;7.97;6.43;;;;;18.90;94549.00;;;;7397890;19;20132;-72
2023/08/23 05:07:43;;;;;;;9.57;5.82;;;;;19.00;94554.00;;;;7399490;19;20129;-72
2023/08/23 05:10:24;;;;;;;10.20;5.70;;;;;19.10;94553.00;;;;7396373;19;20144;-75
2023/08/23 05:12:52;;;;;;;6.22;5.63;;;;;19.20;94548.00;;;;7395919;19;20141;-71
2023/08/23 05:15:26;;;;;;;8.13;5.55;;;;;19.20;94555.00;;;;7396930;19;20149;-74
2023/08/23 05:18:02;;;;;;;6.35;5.75;;;;;19.20;94563.00;;;;7396328;19;20141;-71
2023/08/23 05:20:37;;;;;;;8.55;5.80;;;;;19.40;94560.00;;;;7397684;19;20143;-71
2023/08/23 05:23:06;;;;;;;7.05;5.70;;;;;19.50;94561.00;;;;7398855;19;20129;-72
2023/08/23 05:25:40;;;;;;;6.65;5.40;;;;;19.60;94558.00;;;;7397613;19;20129;-73
2023/08/23 05:28:08;;;;;;;7.20;5.13;;;;;19.80;94549.00;;;;7397914;19;20135;-71
2023/08/23 05:30:42;;;;;;;8.35;5.88;;;;;20.00;94554.00;;;;7396939;19;20208;-71
2023/08/23 05:33:10;;;;;;;9.30;5.45;;;;;20.20;94547.00;;;;7396090;19;20157;-73
2023/08/23 05:35:44;;;;;;;8.25;5.30;;;;;20.50;94550.00;;;;7395373;19;20125;-73
2023/08/23 05:38:12;;;;;;;5.63;5.05;;;;;20.80;94546.00;;;;7395811;19;20137;-72
2023/08/23 05:40:48;;;;;;;7.93;4.95;;;;;21.00;94544.00;;;;7396689;19;20129;-74
2023/08/23 05:43:17;;;;;;;6.25;5.03;;;;;21.10;94546.00;;;;7394431;19;20136;-73
2023/08/23 05:45:54;;;;;;;5.38;4.60;;;;;21.30;94549.00;;;;7396649;19;20136;-74
2023/08/23 05:48:22;;;;;;;8.02;4.82;;;;;21.40;94547.00;;;;7394698;19;20216;-73
2023/08/23 05:50:57;;;;;;;8.15;4.22;;;;;21.30;94556.00;;;;7397532;19;20133;-74
2023/08/23 05:53:25;;;;;;;5.90;5.07;;;;;21.30;94555.00;;;;7395171;19;20172;-74
2023/08/23 05:55:59;;;;;;;6.20;4.72;;;;;21.20;94563.00;;;;7393923;19;20148;-74
2023/08/23 05:58:27;;;;;;;7.10;4.90;;;;;21.10;94565.00;;;;7397070;19;20136;-75
2023/08/23 06:01:01;;;;;;;6.30;4.65;;;;;21.10;94561.00;;;;7395818;19;20137;-73
2023/08/23 06:03:35;;;;;;;5.22;4.72;;;;;21.20;94570.00;;;;7395516;19;20616;-74
2023/08/23 06:06:03;;;;;;;7.40;4.60;;;;;21.30;94572.00;;;;7396182;19;21107;-74
2023/08/23 06:08:44;;;;;;;7.40;5.22;;;;;21.50;94574.00;;;;7395091;19;20185;-74
2023/08/23 06:11:26;;;;;;;11.88;5.72;;;;;21.60;94568.00;;;;7394442;19;20151;-76
2023/08/23 06:13:56;;;;;;;9.52;4.85;;;;;21.70;94561.00;;;;7395669;19;20144;-74
2023/08/23 06:16:30;;;;;;;6.78;4.65;;;;;21.70;94562.00;;;;7394074;19;20129;-75
2023/08/23 06:18:58;;;;;;;11.57;5.68;;;;;21.70;94569.00;;;;7396477;19;20596;-75
2023/08/23 06:21:25;;;;;;;7.88;5.15;;;;;21.70;94571.00;;;;7395419;19;20217;-74
2023/08/23 06:24:03;;;;;;;6.47;4.82;;;;;21.80;94573.00;;;;7394389;19;20736;-74
2023/08/23 06:26:38;;;;;;;6.43;4.75;;;;;21.70;94581.00;;;;7395153;19;20487;-74
2023/08/23 06:29:12;;;;;;;5.05;4.18;;;;;21.80;94568.00;;;;7395486;19;20136;-74
2023/08/23 06:31:47;;;;;;;12.82;5.43;;;;;21.90;94580.00;;;;7393672;19;20635;-74
2023/08/23 06:34:16;;;;;;;6.03;5.00;;;;;22.20;94568.00;;;;7395259;19;20149;-73
2023/08/23 06:36:50;;;;;;;7.55;4.90;;;;;22.30;94579.00;;;;7393033;19;20635;-73
2023/08/23 06:39:18;;;;;;;7.90;4.63;;;;;22.40;94572.00;;;;7395303;19;20607;-73
2023/08/23 06:42:01;;;;;;;7.85;5.20;;;;;22.10;94574.00;;;;7395191;19;20161;-74
2023/08/23 06:44:30;;;;;;;5.78;4.70;;;;;22.00;94570.00;;;;7393499;19;20141;-75
2023/08/23 06:47:05;;;;;;;7.93;4.20;;;;;22.10;94566.00;;;;7392128;19;20992;-75
2023/08/23 06:49:33;;;;;;;12.23;4.55;;;;;22.40;94576.00;;;;7394348;19;20503;-74
2023/08/23 06:52:07;;;;;;;9.02;4.72;;;;;22.50;94570.00;;;;7393167;19;20527;-73
2023/08/23 06:54:35;;;;;;;7.00;4.65;;;;;22.50;94577.00;;;;7399860;19;20137;-75
2023/08/23 06:57:09;;;;;;;4.75;4.35;;;;;22.40;94588.00;;;;7398485;19;20137;-74
2023/08/23 06:59:37;;;;;;;5.18;4.07;;;;;22.40;94580.00;;;;7400588;19;20232;-73
2023/08/23 07:02:12;;;;;;;9.07;4.80;;;;;22.60;94592.00;;;;7402632;19;20715;-75
2023/08/23 07:04:40;;;;;;;8.38;4.47;;;;;22.60;94583.00;;;;7402287;19;20627;-74
2023/08/23 07:07:09;;;;;;;6.88;4.45;;;;;22.70;94582.00;;;;7402662;19;20121;-76
2023/08/23 07:09:51;;;;;;;10.38;5.00;;;;;23.00;94574.00;;;;7400350;19;20634;-75
2023/08/23 07:12:19;;;;;;;11.48;4.50;;;;;23.10;94576.00;;;;7401831;19;20587;-75
2023/08/23 07:14:53;;;;;;;8.13;4.43;;;;;23.10;94583.00;;;;7402497;19;20168;-78
2023/08/23 07:17:21;;;;;;;6.93;5.07;;;;;23.20;94584.00;;;;7398326;19;20148;-72
2023/08/23 07:19:55;;;;;;;5.60;4.47;;;;;23.40;94582.00;;;;7399943;19;20136;-74
2023/08/23 07:22:23;;;;;;;5.32;4.63;;;;;23.60;94588.00;;;;7402876;19;20136;-75
2023/08/23 07:25:03;;;;;;;9.52;4.38;;;;;23.60;94585.00;;;;7401830;19;20137;-75
2023/08/23 07:27:31;;;;;;;6.75;4.40;;;;;23.70;94582.00;;;;7399519;19;20216;-74
2023/08/23 07:30:07;;;;;;;7.85;4.30;;;;;24.00;94585.00;;;;7401110;19;20160;-75
2023/08/23 07:32:41;;;;;;;6.15;4.50;;;;;23.90;94581.00;;;;7401118;19;20918;-74
2023/08/23 07:35:11;;;;;;;9.82;4.38;;;;;24.10;94590.00;;;;7399309;19;20144;-76
2023/08/23 07:37:45;;;;;;;8.70;5.03;;;;;24.40;94580.00;;;;7401096;19;20481;-73
2023/08/23 07:40:22;;;;;;;5.05;4.22;;;;;24.50;94580.00;;;;7401954;19;20628;-75
2023/08/23 07:42:58;;;;;;;6.07;4.97;;;;;24.60;94580.00;;;;7400158;19;20628;-75
2023/08/23 07:45:26;;;;;;;4.93;4.40;;;;;24.70;94588.00;;;;7401660;19;20157;-75
2023/08/23 07:48:00;;;;;;;4.47;4.07;;;;;24.90;94582.00;;;;7400994;19;20526;-74
2023/08/23 07:50:35;;;;;;;8.70;4.40;;;;;25.00;94585.00;;;;7401290;19;20573;-75
2023/08/23 07:53:10;;;;;;;9.13;4.30;;;;;24.90;94597.00;;;;7402385;19;20136;-75
2023/08/23 07:55:38;;;;;;;4.95;4.00;;;;;24.70;94594.00;;;;7400201;19;20564;-74
2023/08/23 07:58:13;;;;;;;6.45;4.57;;;;;24.90;94585.00;;;;7401137;19;20133;-74
2023/08/23 08:00:47;;;;;;;8.23;4.65;;;;;25.00;94598.00;;;;7399890;19;20128;-70
2023/08/23 08:03:15;;;;;;;5.28;4.57;;;;;25.40;94595.00;;;;7398943;19;20184;-73
2023/08/23 08:05:49;;;;;;;6.25;4.18;;;;;25.60;94594.00;;;;7397788;19;20220;-74
2023/08/23 08:08:39;;;;;;;5.82;3.90;;;;;25.50;94595.00;;;;7399949;19;20132;-72
2023/08/23 08:11:14;;;;;;;5.78;3.83;;;;;25.50;94601.00;;;;7397683;19;20254;-72
2023/08/23 08:13:48;;;;;;;5.82;4.25;;;;;25.50;94595.00;;;;7400106;19;20176;-73
2023/08/23 08:16:16;;;;;;;7.72;4.30;;;;;25.90;94597.00;;;;7399869;19;20532;-72
2023/08/23 08:18:50;;;;;;;5.45;4.53;;;;;25.30;94601.00;;;;7398998;19;20869;-73
2023/08/23 08:21:27;;;;;;;6.93;4.57;;;;;25.90;94595.00;;;;7397908;19;20160;-73
2023/08/23 08:24:02;;;;;;;9.70;4.68;;;;;26.30;94607.00;;;;7399370;19;20608;-72
2023/08/23 08:26:30;;;;;;;7.55;4.45;;;;;26.20;94601.00;;;;7399201;19;20128;-74
2023/08/23 08:29:05;;;;;;;6.53;4.40;;;;;26.20;94595.00;;;;7399463;19;20212;-74
2023/08/23 08:31:34;;;;;;;7.32;5.07;;;;;26.90;94599.00;;;;7398196;19;20137;-73
2023/08/23 08:34:02;;;;;;;5.40;3.90;;;;;26.70;94594.00;;;;7398069;19;20155;-73
2023/08/23 08:36:40;;;;;;;4.22;3.83;;;;;26.40;94592.00;;;;7398278;19;20604;-73
2023/08/23 08:39:08;;;;;;;6.78;3.80;;;;;26.50;94593.00;;;;7399588;19;20129;-71
2023/08/23 08:41:36;;;;;;;6.05;4.53;;;;;26.90;94594.00;;;;7398005;19;20175;-72
2023/08/23 08:44:12;;;;;;;7.93;4.53;;;;;27.40;94594.00;;;;7400766;19;20162;-71
2023/08/23 08:46:40;;;;;;;8.00;4.72;;;;;27.30;94593.00;;;;7396995;19;20721;-73
2023/08/23 08:49:08;;;;;;;6.30;4.13;;;;;27.10;94598.00;;;;7400182;19;20137;-73
2023/08/23 08:51:48;;;;;;;8.23;4.72;;;;;27.10;94602.00;;;;7387438;19;20144;-74
2023/08/23 08:54:18;;;;;;;6.15;3.85;;;;;26.60;94600.00;;;;7379916;19;20140;-71
2023/08/23 08:56:53;;;;;;;10.18;4.25;;;;;26.60;94601.00;;;;7383515;19;20152;-73
2023/08/23 08:59:27;;;;;;;9.85;4.30;;;;;26.90;94605.00;;;;7387857;19;20583;-73
2023/08/23 09:01:57;;;;;;;5.85;3.95;;;;;26.80;94609.00;;;;7384535;19;20199;-73
2023/08/23 09:04:31;;;;;;;6.40;4.38;;;;;27.10;94609.00;;;;7384338;19;20220;-71
2023/08/23 09:06:58;;;;;;;4.68;3.72;;;;;27.30;94564.00;;;;7385327;19;20167;-73
2023/08/23 09:09:47;;;;;;;6.30;3.65;;;;;27.70;94606.00;;;;7386386;19;20215;-74
2023/08/23 09:12:22;;;;;;;5.75;3.70;;;;;27.90;94606.00;;;;7387111;19;20160;-74
2023/08/23 09:15:03;;;;;;;6.55;4.13;;;;;28.00;94608.00;;;;7385158;19;20165;-74
2023/08/23 09:17:38;;;;;;;8.48;4.28;;;;;28.40;94602.00;;;;7386302;19;20168;-73
2023/08/23 09:20:12;;;;;;;4.70;4.13;;;;;28.00;94612.00;;;;7386343;19;20152;-73
2023/08/23 09:22:52;;;;;;;5.53;3.80;;;;;28.40;94607.00;;;;7387554;19;20143;-76
2023/08/23 09:25:20;;;;;;;4.30;3.85;;;;;28.40;94608.00;;;;7383550;19;20152;-76
2023/08/23 09:27:55;;;;;;;7.32;3.97;;;;;28.20;94603.00;;;;7386492;19;20141;-76
2023/08/23 09:30:25;;;;;;;5.00;3.97;;;;;28.20;94603.00;;;;7387689;19;20622;-75
2023/08/23 09:33:05;;;;;;;8.10;3.78;;;;;28.20;94593.00;;;;7385694;19;20208;-76
2023/08/23 09:35:33;;;;;;;7.75;3.60;;;;;28.70;94599.00;;;;7385664;19;20679;-74
2023/08/23 09:38:07;;;;;;;8.77;4.43;;;;;28.50;94596.00;;;;7386542;19;20150;-74
2023/08/23 09:40:41;;;;;;;5.55;4.00;;;;;29.10;94593.00;;;;7384625;19;20546;-75
2023/08/23 09:43:17;;;;;;;6.28;3.65;;;;;28.50;94605.00;;;;7384732;19;20593;-73
2023/08/23 09:45:52;;;;;;;5.72;3.90;;;;;28.20;94609.00;;;;7385329;19;20120;-74
2023/08/23 09:48:28;;;;;;;5.63;4.10;;;;;27.90;94618.00;;;;7384223;19;20133;-74
2023/08/23 09:51:04;;;;;;;4.15;3.28;;;;;27.30;94588.00;;;;7384415;19;20157;-74
2023/08/23 09:53:45;;;;;;;5.88;4.07;;;;;28.30;94598.00;;;;7386528;19;20144;-77
2023/08/23 09:56:20;;;;;;;5.43;3.60;;;;;28.60;94598.00;;;;7386650;19;20129;-73
2023/08/23 09:58:48;;;;;;;4.78;3.95;;;;;28.50;94591.00;;;;7386144;19;20165;-74
2023/08/23 10:01:26;;;;;;;4.05;3.65;;;;;27.90;94590.00;;;;7385329;19;20493;-75
2023/08/23 10:04:01;;;;;;;4.95;3.53;;;;;28.40;94593.00;;;;7386395;19;20168;-76
2023/08/23 10:06:36;;;;;;;7.45;4.40;;;;;28.70;94593.00;;;;7384275;19;20148;-76
2023/08/23 10:09:12;;;;;;;4.78;3.97;;;;;28.90;94591.00;;;;7382401;19;20180;-74
2023/08/23 10:11:53;;;;;;;7.72;4.53;;;;;29.30;94585.00;;;;7385053;19;20487;-75
2023/08/23 10:14:29;;;;;;;10.27;4.22;;;;;29.20;94582.00;;;;7384452;19;20604;-74
2023/08/23 10:17:06;;;;;;;5.82;4.07;;;;;30.00;94588.00;;;;7385382;19;20188;-75
2023/08/23 10:19:41;;;;;;;5.57;3.97;;;;;30.00;94586.00;;;;7384901;19;20144;-74
2023/08/23 10:22:09;;;;;;;5.90;4.40;;;;;30.60;94583.00;;;;7385478;19;20604;-75
2023/08/23 10:24:48;;;;;;;8.75;4.70;;;;;30.70;94582.00;;;;7386858;19;20160;-73
2023/08/23 10:27:17;;;;;;;5.88;4.00;;;;;30.70;94578.00;;;;7384329;19;20165;-75
2023/08/23 10:29:51;;;;;;;6.20;4.00;;;;;30.80;94589.00;;;;7383389;19;20169;-75
2023/08/23 10:32:46;;;;;;;8.18;3.95;;;;;30.70;94588.00;;;;7386678;19;20560;-74
2023/08/23 10:35:39;;;;;;;7.75;3.92;;;;;30.00;94599.00;;;;7386236;19;20131;-76
2023/08/23 10:38:09;;;;;;;9.15;4.38;;;;;29.40;94594.00;;;;7384109;19;20164;-73
2023/08/23 10:40:47;;;;;;;5.72;3.63;;;;;28.90;94603.00;;;;7383687;19;20515;-74
2023/08/23 10:43:18;;;;;;;6.20;4.38;;;;;29.40;94601.00;;;;7384678;19;20136;-74
2023/08/23 10:46:08;;;;;;;7.05;4.00;;;;;29.60;94600.00;;;;7385576;19;20136;-74
2023/08/23 10:48:37;;;;;;;7.82;3.83;;;;;29.20;94604.00;;;;7385451;19;20591;-74
2023/08/23 10:51:13;;;;;;;7.45;4.13;;;;;29.60;94599.00;;;;7384236;19;20132;-73
2023/08/23 10:53:42;;;;;;;6.32;4.10;;;;;29.70;94593.00;;;;7383412;19;20160;-76
2023/08/23 10:56:11;;;;;;;9.38;4.47;;;;;29.90;94600.00;;;;7385076;19;20132;-77
2023/08/23 10:58:45;;;;;;;9.18;4.53;;;;;30.30;94597.00;;;;7383126;19;20595;-76
2023/08/23 11:01:12;;;;;;;4.57;3.65;;;;;29.90;94596.00;;;;7382971;19;20151;-74
2023/08/23 11:03:47;;;;;;;5.00;4.28;;;;;30.00;94594.00;;;;7383860;19;20183;-76
2023/08/23 11:06:17;;;;;;;9.32;4.47;;;;;30.10;94592.00;;;;7383018;19;20155;-77
2023/08/23 11:09:17;;;;;;;10.38;4.70;;;;;29.20;94602.00;;;;7383487;19;20591;-76
2023/08/23 11:11:52;;;;;;;7.15;3.83;;;;;29.50;94597.00;;;;7381639;19;20149;-75
2023/08/23 11:14:26;;;;;;;6.75;3.67;;;;;30.00;94585.00;;;;7384412;19;20481;-75
2023/08/23 11:16:56;;;;;;;18.30;4.22;;;;;30.10;94581.00;;;;7383504;19;20132;-74
2023/08/23 11:19:24;;;;;;;6.75;4.13;;;;;30.20;94575.00;;;;7382129;19;21085;-76
2023/08/23 11:22:00;;;;;;;7.22;4.03;;;;;30.40;94585.00;;;;7383553;19;20486;-75
2023/08/23 11:24:29;;;;;;;4.57;3.90;;;;;30.80;94581.00;;;;7384525;19;20132;-75
2023/08/23 11:27:10;;;;;;;6.63;3.92;;;;;30.60;94582.00;;;;7383831;19;20140;-74
2023/08/23 11:29:45;;;;;;;8.20;4.07;;;;;30.70;94573.00;;;;7381159;19;20156;-75
2023/08/23 11:32:20;;;;;;;5.32;3.85;;;;;30.80;94577.00;;;;7384026;19;20595;-76
2023/08/23 11:34:48;;;;;;;4.97;3.80;;;;;30.90;94576.00;;;;7381926;19;20157;-75
2023/08/23 11:37:15;;;;;;;5.07;3.90;;;;;30.80;94577.00;;;;7381877;19;20132;-76
2023/08/23 11:40:04;;;;;;;5.25;3.70;;;;;30.30;94579.00;;;;7381880;19;20147;-76
2023/08/23 11:42:40;;;;;;;4.85;3.97;;;;;30.70;94613.00;;;;7389900;19;20164;-74
2023/08/23 11:45:16;;;;;;;7.32;4.22;;;;;30.00;94618.00;;;;7389242;19;20492;-76
2023/08/23 11:47:53;;;;;;;7.35;3.55;;;;;29.90;94596.00;;;;7388227;19;20234;-76
2023/08/23 11:50:22;;;;;;;4.30;3.90;;;;;30.20;94587.00;;;;7390037;19;20125;-75
2023/08/23 11:52:57;;;;;;;8.50;4.45;;;;;30.00;94606.00;;;;7387318;19;20143;-76
2023/08/23 11:55:25;;;;;;;5.45;3.78;;;;;29.20;94607.00;;;;7386240;19;20156;-76
2023/08/23 11:57:56;;;;;;;6.60;4.50;;;;;29.10;94590.00;;;;7389189;19;20132;-72
2023/08/23 12:00:33;;;;;;;6.00;3.85;;;;;28.90;94587.00;;;;7389600;19;20179;-77
2023/08/23 12:03:09;;;;;;;7.80;3.90;;;;;30.20;94569.00;;;;7387964;19;20176;-75
2023/08/23 12:05:44;;;;;;;6.68;4.15;;;;;29.90;94605.00;;;;7389006;19;20160;-76
2023/08/23 12:08:12;;;;;;;6.65;4.00;;;;;29.30;94602.00;;;;7388841;19;20162;-76
2023/08/23 12:10:53;;;;;;;8.63;4.03;;;;;29.20;94594.00;;;;7388234;19;20497;-75
2023/08/23 12:13:21;;;;;;;8.15;4.22;;;;;28.90;94606.00;;;;7389814;19;20148;-74
2023/08/23 12:15:55;;;;;;;4.72;4.32;;;;;28.90;94600.00;;;;7387965;19;20149;-75
2023/08/23 12:18:30;;;;;;;5.32;4.20;;;;;28.80;94573.00;;;;7388635;19;20547;-74
2023/08/23 12:21:04;;;;;;;7.30;4.50;;;;;30.00;94567.00;;;;7389090;19;20129;-76
2023/08/23 12:23:39;;;;;;;5.90;4.25;;;;;31.30;94561.00;;;;7390423;19;20797;-74
2023/08/23 12:26:13;;;;;;;5.07;4.07;;;;;30.90;94590.00;;;;7388846;19;20208;-74
2023/08/23 12:28:41;;;;;;;6.18;3.75;;;;;30.40;94590.00;;;;7390711;19;20884;-74
2023/08/23 12:31:16;;;;;;;6.25;4.35;;;;;29.70;94571.00;;;;7391370;19;20200;-74
2023/08/23 12:33:50;;;;;;;6.53;3.72;;;;;31.00;94599.00;;;;7391185;19;20156;-75
2023/08/23 12:36:25;;;;;;;22.75;4.07;;;;;30.10;94570.00;;;;7387837;19;20148;-76
2023/08/23 12:38:54;;;;;;;6.10;4.10;;;;;29.40;94570.00;;;;7388240;19;20157;-75
2023/08/23 12:41:29;;;;;;;4.95;3.60;;;;;30.60;94564.00;;;;7387922;19;20151;-77
2023/08/23 12:43:57;;;;;;;7.45;3.90;;;;;31.00;94565.00;;;;7388964;19;20149;-78
2023/08/23 12:46:34;;;;;;;5.25;4.00;;;;;30.20;94575.00;;;;7387170;19;20135;-80
2023/08/23 12:49:12;;;;;;;6.47;4.20;;;;;31.00;94566.00;;;;7392432;19;20742;-79
2023/08/23 12:51:47;;;;;;;7.18;4.38;;;;;31.60;94568.00;;;;7391740;19;20152;-79
2023/08/23 12:54:15;;;;;;;9.27;4.18;;;;;32.00;94566.00;;;;7390858;19;20136;-76
2023/08/23 12:56:49;;;;;;;6.13;3.70;;;;;32.20;94558.00;;;;7387630;19;20140;-79
2023/08/23 12:59:23;;;;;;;4.65;3.60;;;;;31.30;94564.00;;;;7388382;19;20156;-80
2023/08/23 13:01:58;;;;;;;5.22;4.10;;;;;31.50;94563.00;;;;7388595;19;20148;-81
2023/08/23 13:04:32;;;;;;;6.35;3.63;;;;;32.00;94561.00;;;;7386902;19;20224;-80
2023/08/23 13:07:07;;;;;;;4.28;3.72;;;;;32.90;94560.00;;;;7387558;19;20140;-80
2023/08/23 13:09:41;;;;;;;6.57;3.67;;;;;33.00;94560.00;;;;7388057;19;20155;-80
2023/08/23 13:12:21;;;;;;;8.63;3.90;;;;;33.10;94559.00;;;;7394338;19;20136;-77
2023/08/23 13:14:58;;;;;;;4.65;4.07;;;;;31.80;94562.00;;;;7396934;19;20135;-79
2023/08/23 13:17:26;;;;;;;8.55;4.35;;;;;31.30;94574.00;;;;7395788;19;20171;-79
2023/08/23 13:19:55;;;;;;;13.65;3.78;;;;;31.10;94578.00;;;;7398833;19;20152;-80
2023/08/23 13:22:30;;;;;;;4.88;4.07;;;;;30.90;94568.00;;;;7392946;19;20147;-82
2023/08/23 13:25:07;;;;;;;5.18;3.72;;;;;31.30;94568.00;;;;7393104;19;20165;-79
2023/08/23 13:27:35;;;;;;;8.20;4.10;;;;;31.80;94572.00;;;;7391275;19;20574;-80
2023/08/23 13:30:10;;;;;;;7.32;4.03;;;;;31.30;94577.00;;;;7395790;19;20132;-77